sensor_id;sensor_type;location;lat;lon;timestamp;pressure;altitude;pressure_sealevel;temperature;humidity
79129;BME280;68529;43.286;23.360;2024-03-08T00:02:03;99623.94;;;7.37;70.09
79129;BME280;68529;43.286;23.360;2024-03-08T00:04:29;99623.06;;;7.38;70.03
79129;BME280;68529;43.286;23.360;2024-03-08T00:06:54;99621.31;;;7.39;70.35
79129;BME280;68529;43.286;23.360;2024-03-08T00:09:19;99629.16;;;7.39;70.17
79129;BME280;68529;43.286;23.360;2024-03-08T00:11:46;99627.44;;;7.38;70.32
79129;BME280;68529;43.286;23.360;2024-03-08T00:14:12;99628.38;;;7.34;69.95
79129;BME280;68529;43.286;23.360;2024-03-08T00:16:37;99627.50;;;7.33;70.43
79129;BME280;68529;43.286;23.360;2024-03-08T00:19:03;99626.72;;;7.28;70.00
79129;BME280;68529;43.286;23.360;2024-03-08T00:21:29;99625.84;;;7.28;70.00
79129;BME280;68529;43.286;23.360;2024-03-08T00:23:54;99631.16;;;7.22;70.01
79129;BME280;68529;43.286;23.360;2024-03-08T00:26:20;99625.97;;;7.19;70.49
79129;BME280;68529;43.286;23.360;2024-03-08T00:28:47;99631.22;;;7.19;70.32
79129;BME280;68529;43.286;23.360;2024-03-08T00:31:14;99639.00;;;7.22;70.39
79129;BME280;68529;43.286;23.360;2024-03-08T00:33:39;99631.13;;;7.25;70.40
79129;BME280;68529;43.286;23.360;2024-03-08T00:36:05;99632.91;;;7.21;70.67
79129;BME280;68529;43.286;23.360;2024-03-08T00:38:30;99635.56;;;7.18;70.19
79129;BME280;68529;43.286;23.360;2024-03-08T00:40:56;99637.31;;;7.18;70.53
79129;BME280;68529;43.286;23.360;2024-03-08T00:43:22;99631.22;;;7.19;70.05
79129;BME280;68529;43.286;23.360;2024-03-08T00:45:47;99639.03;;;7.19;70.11
79129;BME280;68529;43.286;23.360;2024-03-08T00:48:12;99636.44;;;7.20;70.38
79129;BME280;68529;43.286;23.360;2024-03-08T00:50:38;99634.66;;;7.22;70.15
79129;BME280;68529;43.286;23.360;2024-03-08T00:53:04;99633.81;;;7.20;69.99
79129;BME280;68529;43.286;23.360;2024-03-08T00:55:29;99625.97;;;7.19;70.36
79129;BME280;68529;43.286;23.360;2024-03-08T00:57:55;99632.06;;;7.19;70.30
79129;BME280;68529;43.286;23.360;2024-03-08T01:00:20;99626.84;;;7.18;70.36
79129;BME280;68529;43.286;23.360;2024-03-08T01:02:46;99627.72;;;7.20;70.03
79129;BME280;68529;43.286;23.360;2024-03-08T01:05:13;99629.50;;;7.15;69.93
79129;BME280;68529;43.286;23.360;2024-03-08T01:07:39;99620.88;;;7.11;70.03
79129;BME280;68529;43.286;23.360;2024-03-08T01:10:04;99623.53;;;7.08;69.98
79129;BME280;68529;43.286;23.360;2024-03-08T01:12:34;99627.03;;;7.07;70.02
79129;BME280;68529;43.286;23.360;2024-03-08T01:15:00;99621.84;;;7.06;70.20
79129;BME280;68529;43.286;23.360;2024-03-08T01:17:25;99618.31;;;7.07;70.36
79129;BME280;68529;43.286;23.360;2024-03-08T01:19:51;99621.88;;;7.02;70.37
79129;BME280;68529;43.286;23.360;2024-03-08T01:22:16;99614.19;;;6.90;70.23
79129;BME280;68529;43.286;23.360;2024-03-08T01:24:41;99623.81;;;6.87;70.68
79129;BME280;68529;43.286;23.360;2024-03-08T01:27:07;99622.03;;;6.92;70.53
79129;BME280;68529;43.286;23.360;2024-03-08T01:29:34;99615.91;;;6.94;70.50
79129;BME280;68529;43.286;23.360;2024-03-08T01:31:59;99622.00;;;6.93;70.68
79129;BME280;68529;43.286;23.360;2024-03-08T01:34:27;99623.72;;;6.94;70.54
79129;BME280;68529;43.286;23.360;2024-03-08T01:36:54;99623.81;;;6.88;70.40
79129;BME280;68529;43.286;23.360;2024-03-08T01:39:21;99617.69;;;6.91;71.00
79129;BME280;68529;43.286;23.360;2024-03-08T01:41:47;99621.94;;;6.96;70.70
79129;BME280;68529;43.286;23.360;2024-03-08T01:44:13;99619.31;;;6.98;70.94
79129;BME280;68529;43.286;23.360;2024-03-08T01:46:44;99623.69;;;6.97;70.52
79129;BME280;68529;43.286;23.360;2024-03-08T01:49:10;99616.72;;;6.96;70.60
79129;BME280;68529;43.286;23.360;2024-03-08T01:51:38;99621.03;;;6.99;70.48
79129;BME280;68529;43.286;23.360;2024-03-08T01:54:05;99621.03;;;6.99;70.54
79129;BME280;68529;43.286;23.360;2024-03-08T01:56:31;99619.34;;;6.96;70.86
79129;BME280;68529;43.286;23.360;2024-03-08T01:58:57;99622.81;;;6.95;70.73
79129;BME280;68529;43.286;23.360;2024-03-08T02:01:25;99614.16;;;6.95;70.52
79129;BME280;68529;43.286;23.360;2024-03-08T02:03:50;99617.72;;;6.89;70.43
79129;BME280;68529;43.286;23.360;2024-03-08T02:06:16;99617.69;;;6.91;70.83
79129;BME280;68529;43.286;23.360;2024-03-08T02:08:45;99612.38;;;6.95;71.11
79129;BME280;68529;43.286;23.360;2024-03-08T02:11:12;99611.66;;;6.86;70.83
79129;BME280;68529;43.286;23.360;2024-03-08T02:13:37;99613.44;;;6.84;71.08
79129;BME280;68529;43.286;23.360;2024-03-08T02:16:03;99604.66;;;6.89;70.79
79129;BME280;68529;43.286;23.360;2024-03-08T02:18:30;99614.19;;;6.92;70.87
79129;BME280;68529;43.286;23.360;2024-03-08T02:20:58;99610.69;;;6.94;70.69
79129;BME280;68529;43.286;23.360;2024-03-08T02:23:25;99601.94;;;6.97;70.74
79129;BME280;68529;43.286;23.360;2024-03-08T02:25:51;99610.63;;;6.97;70.79
79129;BME280;68529;43.286;23.360;2024-03-08T02:28:17;99604.50;;;6.98;70.72
79129;BME280;68529;43.286;23.360;2024-03-08T02:30:49;99608.03;;;6.96;70.44
79129;BME280;68529;43.286;23.360;2024-03-08T02:33:16;99607.97;;;7.00;70.69
79129;BME280;68529;43.286;23.360;2024-03-08T02:35:43;99607.13;;;7.00;70.65
79129;BME280;68529;43.286;23.360;2024-03-08T02:38:15;99608.78;;;7.04;70.42
79129;BME280;68529;43.286;23.360;2024-03-08T02:40:48;99602.81;;;6.97;70.85
79129;BME280;68529;43.286;23.360;2024-03-08T02:43:15;99609.72;;;6.98;70.76
79129;BME280;68529;43.286;23.360;2024-03-08T02:45:41;99606.41;;;6.87;70.81
79129;BME280;68529;43.286;23.360;2024-03-08T02:48:10;99612.53;;;6.86;71.07
79129;BME280;68529;43.286;23.360;2024-03-08T02:50:36;99610.75;;;6.87;70.69
79129;BME280;68529;43.286;23.360;2024-03-08T02:53:02;99610.84;;;6.82;71.05
79129;BME280;68529;43.286;23.360;2024-03-08T02:55:27;99616.88;;;6.84;70.99
79129;BME280;68529;43.286;23.360;2024-03-08T02:57:53;99614.28;;;6.84;70.69
79129;BME280;68529;43.286;23.360;2024-03-08T03:00:22;99616.06;;;6.84;70.95
79129;BME280;68529;43.286;23.360;2024-03-08T03:02:51;99611.63;;;6.87;70.94
79129;BME280;68529;43.286;23.360;2024-03-08T03:05:20;99612.47;;;6.91;70.97
79129;BME280;68529;43.286;23.360;2024-03-08T03:07:45;99617.69;;;6.91;70.88
79129;BME280;68529;43.286;23.360;2024-03-08T03:10:11;99614.19;;;6.92;70.99
79129;BME280;68529;43.286;23.360;2024-03-08T03:12:37;99618.56;;;6.91;71.13
79129;BME280;68529;43.286;23.360;2024-03-08T03:15:04;99626.50;;;6.84;70.57
79129;BME280;68529;43.286;23.360;2024-03-08T03:17:29;99618.63;;;6.85;70.99
79129;BME280;68529;43.286;23.360;2024-03-08T03:19:55;99620.25;;;6.92;70.88
79129;BME280;68529;43.286;23.360;2024-03-08T03:22:20;99620.22;;;6.95;71.18
79129;BME280;68529;43.286;23.360;2024-03-08T03:24:46;99628.91;;;6.96;70.92
79129;BME280;68529;43.286;23.360;2024-03-08T03:27:13;99624.59;;;6.93;70.73
79129;BME280;68529;43.286;23.360;2024-03-08T03:29:39;99633.41;;;6.86;70.84
79129;BME280;68529;43.286;23.360;2024-03-08T03:32:13;99627.38;;;6.83;70.78
79129;BME280;68529;43.286;23.360;2024-03-08T03:34:39;99625.53;;;6.89;70.41
79129;BME280;68529;43.286;23.360;2024-03-08T03:37:05;99640.31;;;6.92;70.38
79129;BME280;68529;43.286;23.360;2024-03-08T03:39:33;99641.28;;;6.83;70.48
79129;BME280;68529;43.286;23.360;2024-03-08T03:42:16;99642.31;;;6.72;70.48
79129;BME280;68529;43.286;23.360;2024-03-08T03:44:44;99637.06;;;6.73;70.41
79129;BME280;68529;43.286;23.360;2024-03-08T03:47:10;99645.06;;;6.61;70.67
79129;BME280;68529;43.286;23.360;2024-03-08T03:49:35;99638.97;;;6.59;70.53
79129;BME280;68529;43.286;23.360;2024-03-08T03:52:00;99639.91;;;6.55;70.54
79129;BME280;68529;43.286;23.360;2024-03-08T03:54:26;99634.66;;;6.58;70.63
79129;BME280;68529;43.286;23.360;2024-03-08T03:56:51;99639.88;;;6.58;70.54
79129;BME280;68529;43.286;23.360;2024-03-08T03:59:18;99643.34;;;6.59;70.45
79129;BME280;68529;43.286;23.360;2024-03-08T04:01:44;99639.84;;;6.61;70.83
79129;BME280;68529;43.286;23.360;2024-03-08T04:04:10;99647.63;;;6.64;70.54
79129;BME280;68529;43.286;23.360;2024-03-08T04:06:35;99651.19;;;6.57;70.61
79129;BME280;68529;43.286;23.360;2024-03-08T04:09:00;99652.84;;;6.64;70.32
79129;BME280;68529;43.286;23.360;2024-03-08T04:11:26;99655.34;;;6.70;70.28
79129;BME280;68529;43.286;23.360;2024-03-08T04:13:51;99657.34;;;6.52;70.45
79129;BME280;68529;43.286;23.360;2024-03-08T04:16:17;99657.34;;;6.53;70.39
79129;BME280;68529;43.286;23.360;2024-03-08T04:18:44;99659.03;;;6.56;70.48
79129;BME280;68529;43.286;23.360;2024-03-08T04:21:09;99662.44;;;6.61;70.56
79129;BME280;68529;43.286;23.360;2024-03-08T04:23:34;99658.94;;;6.63;70.53
79129;BME280;68529;43.286;23.360;2024-03-08T04:26:02;99655.44;;;6.66;70.39
79129;BME280;68529;43.286;23.360;2024-03-08T04:28:29;99661.50;;;6.65;70.44
79129;BME280;68529;43.286;23.360;2024-03-08T04:30:55;99668.44;;;6.69;70.41
79129;BME280;68529;43.286;23.360;2024-03-08T04:33:20;99672.84;;;6.62;70.24
79129;BME280;68529;43.286;23.360;2024-03-08T04:35:47;99672.03;;;6.60;70.41
79129;BME280;68529;43.286;23.360;2024-03-08T04:38:12;99675.44;;;6.67;70.51
79129;BME280;68529;43.286;23.360;2024-03-08T04:40:38;99674.56;;;6.66;70.21
79129;BME280;68529;43.286;23.360;2024-03-08T04:43:03;99682.44;;;6.63;70.47
79129;BME280;68529;43.286;23.360;2024-03-08T04:45:29;99684.16;;;6.64;70.23
79129;BME280;68529;43.286;23.360;2024-03-08T04:47:54;99685.22;;;6.45;70.51
79129;BME280;68529;43.286;23.360;2024-03-08T04:50:20;99679.06;;;6.51;70.85
79129;BME280;68529;43.286;23.360;2024-03-08T04:52:45;99681.69;;;6.52;70.56
79129;BME280;68529;43.286;23.360;2024-03-08T04:55:11;99678.09;;;6.59;70.24
79129;BME280;68529;43.286;23.360;2024-03-08T04:57:37;99678.94;;;6.63;70.61
79129;BME280;68529;43.286;23.360;2024-03-08T05:00:03;99683.25;;;6.65;70.49
79129;BME280;68529;43.286;23.360;2024-03-08T05:02:32;99688.59;;;6.56;70.28
79129;BME280;68529;43.286;23.360;2024-03-08T05:04:58;99689.47;;;6.54;70.39
79129;BME280;68529;43.286;23.360;2024-03-08T05:07:23;99696.47;;;6.53;70.17
79129;BME280;68529;43.286;23.360;2024-03-08T05:09:49;99703.44;;;6.51;70.19
79129;BME280;68529;43.286;23.360;2024-03-08T05:12:17;99695.66;;;6.47;70.48
79129;BME280;68529;43.286;23.360;2024-03-08T05:14:45;99699.13;;;6.50;70.31
79129;BME280;68529;43.286;23.360;2024-03-08T05:17:11;99700.78;;;6.54;70.44
79129;BME280;68529;43.286;23.360;2024-03-08T05:19:37;99698.16;;;6.59;70.52
79129;BME280;68529;43.286;23.360;2024-03-08T05:22:02;99706.81;;;6.61;70.40
79129;BME280;68529;43.286;23.360;2024-03-08T05:24:28;99712.91;;;6.61;70.21
79129;BME280;68529;43.286;23.360;2024-03-08T05:26:55;99721.53;;;6.65;70.01
79129;BME280;68529;43.286;23.360;2024-03-08T05:29:20;99720.69;;;6.66;70.46
79129;BME280;68529;43.286;23.360;2024-03-08T05:31:51;99732.09;;;6.54;70.65
79129;BME280;68529;43.286;23.360;2024-03-08T05:34:19;99730.44;;;6.50;70.55
79129;BME280;68529;43.286;23.360;2024-03-08T05:36:45;99737.38;;;6.50;70.59
79129;BME280;68529;43.286;23.360;2024-03-08T05:39:12;99737.31;;;6.54;70.21
79129;BME280;68529;43.286;23.360;2024-03-08T05:41:38;99740.78;;;6.58;70.61
79129;BME280;68529;43.286;23.360;2024-03-08T05:44:07;99745.22;;;6.50;70.54
79129;BME280;68529;43.286;23.360;2024-03-08T05:46:33;99739.19;;;6.43;70.84
79129;BME280;68529;43.286;23.360;2024-03-08T05:48:59;99736.56;;;6.43;70.75
79129;BME280;68529;43.286;23.360;2024-03-08T05:51:25;99740.06;;;6.43;70.65
79129;BME280;68529;43.286;23.360;2024-03-08T05:53:53;99742.59;;;6.48;70.69
79129;BME280;68529;43.286;23.360;2024-03-08T05:56:22;99755.66;;;6.50;70.52
79129;BME280;68529;43.286;23.360;2024-03-08T05:58:48;99752.16;;;6.51;70.40
79129;BME280;68529;43.286;23.360;2024-03-08T06:01:15;99749.59;;;6.46;70.45
79129;BME280;68529;43.286;23.360;2024-03-08T06:03:41;99758.22;;;6.51;70.45
79129;BME280;68529;43.286;23.360;2024-03-08T06:06:12;99759.94;;;6.55;70.60
79129;BME280;68529;43.286;23.360;2024-03-08T06:08:37;99764.28;;;6.55;70.83
79129;BME280;68529;43.286;23.360;2024-03-08T06:11:03;99773.84;;;6.54;70.52
79129;BME280;68529;43.286;23.360;2024-03-08T06:13:29;99766.13;;;6.47;70.29
79129;BME280;68529;43.286;23.360;2024-03-08T06:15:56;99767.03;;;6.41;70.72
79129;BME280;68529;43.286;23.360;2024-03-08T06:18:22;99773.91;;;6.48;70.98
79129;BME280;68529;43.286;23.360;2024-03-08T06:20:47;99768.66;;;6.53;70.63
79129;BME280;68529;43.286;23.360;2024-03-08T06:23:12;99773.84;;;6.54;70.22
79129;BME280;68529;43.286;23.360;2024-03-08T06:25:39;99768.63;;;6.57;70.49
79129;BME280;68529;43.286;23.360;2024-03-08T06:28:04;99779.03;;;6.60;70.45
79129;BME280;68529;43.286;23.360;2024-03-08T06:30:30;99769.53;;;6.53;70.38
79129;BME280;68529;43.286;23.360;2024-03-08T06:32:56;99776.41;;;6.60;70.54
79129;BME280;68529;43.286;23.360;2024-03-08T06:35:21;99779.88;;;6.64;70.65
79129;BME280;68529;43.286;23.360;2024-03-08T06:37:47;99780.75;;;6.64;70.55
79129;BME280;68529;43.286;23.360;2024-03-08T06:40:12;99780.72;;;6.66;70.18
79129;BME280;68529;43.286;23.360;2024-03-08T06:42:39;99782.41;;;6.68;70.37
79129;BME280;68529;43.286;23.360;2024-03-08T06:45:05;99779.81;;;6.70;70.06
79129;BME280;68529;43.286;23.360;2024-03-08T06:47:31;99780.75;;;6.64;70.14
79129;BME280;68529;43.286;23.360;2024-03-08T06:49:57;99789.47;;;6.60;70.51
79129;BME280;68529;43.286;23.360;2024-03-08T06:52:23;99792.09;;;6.57;70.62
79129;BME280;68529;43.286;23.360;2024-03-08T06:54:48;99786.84;;;6.60;70.34
79129;BME280;68529;43.286;23.360;2024-03-08T06:57:14;99793.91;;;6.51;70.26
79129;BME280;68529;43.286;23.360;2024-03-08T06:59:41;99795.63;;;6.52;70.21
79129;BME280;68529;43.286;23.360;2024-03-08T07:02:07;99799.28;;;6.32;70.35
79129;BME280;68529;43.286;23.360;2024-03-08T07:04:34;99802.75;;;6.31;70.75
79129;BME280;68529;43.286;23.360;2024-03-08T07:07:04;99795.69;;;6.45;70.82
79129;BME280;68529;43.286;23.360;2024-03-08T07:09:29;99801.78;;;6.48;70.39
79129;BME280;68529;43.286;23.360;2024-03-08T07:11:54;99801.72;;;6.52;70.30
79129;BME280;68529;43.286;23.360;2024-03-08T07:14:23;99805.19;;;6.56;70.55
79129;BME280;68529;43.286;23.360;2024-03-08T07:16:49;99807.75;;;6.59;70.42
79129;BME280;68529;43.286;23.360;2024-03-08T07:19:16;99811.34;;;6.47;70.51
79129;BME280;68529;43.286;23.360;2024-03-08T07:21:44;99807.03;;;6.41;70.32
79129;BME280;68529;43.286;23.360;2024-03-08T07:24:10;99806.16;;;6.42;70.52
79129;BME280;68529;43.286;23.360;2024-03-08T07:26:44;99813.22;;;6.33;70.63
79129;BME280;68529;43.286;23.360;2024-03-08T07:29:14;99810.47;;;6.45;70.75
79129;BME280;68529;43.286;23.360;2024-03-08T07:31:39;99805.19;;;6.51;70.53
79129;BME280;68529;43.286;23.360;2024-03-08T07:34:21;99822.69;;;6.44;70.39
79129;BME280;68529;43.286;23.360;2024-03-08T07:36:46;99814.00;;;6.39;70.38
79129;BME280;68529;43.286;23.360;2024-03-08T07:39:11;99812.22;;;6.46;70.75
79129;BME280;68529;43.286;23.360;2024-03-08T07:41:39;99816.53;;;6.53;70.17
79129;BME280;68529;43.286;23.360;2024-03-08T07:44:07;99806.00;;;6.61;70.10
79129;BME280;68529;43.286;23.360;2024-03-08T07:46:33;99805.91;;;6.68;70.21
79129;BME280;68529;43.286;23.360;2024-03-08T07:49:02;99806.75;;;6.70;70.19
79129;BME280;68529;43.286;23.360;2024-03-08T07:51:28;99803.19;;;6.79;69.87
79129;BME280;68529;43.286;23.360;2024-03-08T07:53:53;99803.13;;;6.85;69.96
79129;BME280;68529;43.286;23.360;2024-03-08T07:56:20;99806.59;;;6.88;69.81
79129;BME280;68529;43.286;23.360;2024-03-08T07:58:47;99810.28;;;6.66;69.41
79129;BME280;68529;43.286;23.360;2024-03-08T08:01:18;99813.34;;;6.12;70.40
79129;BME280;68529;43.286;23.360;2024-03-08T08:03:45;99812.56;;;6.01;70.93
79129;BME280;68529;43.286;23.360;2024-03-08T08:06:10;99823.66;;;6.28;70.85
79129;BME280;68529;43.286;23.360;2024-03-08T08:08:44;99816.50;;;6.52;70.97
79129;BME280;68529;43.286;23.360;2024-03-08T08:11:10;99822.53;;;6.60;70.48
79129;BME280;68529;43.286;23.360;2024-03-08T08:13:41;99825.19;;;6.55;70.03
79129;BME280;68529;43.286;23.360;2024-03-08T08:16:08;99825.25;;;6.48;70.28
79129;BME280;68529;43.286;23.360;2024-03-08T08:18:34;99817.34;;;6.58;70.21
79129;BME280;68529;43.286;23.360;2024-03-08T08:21:04;99813.78;;;6.67;70.33
79129;BME280;68529;43.286;23.360;2024-03-08T08:23:31;99815.41;;;6.77;70.17
79129;BME280;68529;43.286;23.360;2024-03-08T08:25:57;99819.72;;;6.81;69.91
79129;BME280;68529;43.286;23.360;2024-03-08T08:28:22;99811.88;;;6.79;69.85
79129;BME280;68529;43.286;23.360;2024-03-08T08:30:48;99818.06;;;6.72;70.20
79129;BME280;68529;43.286;23.360;2024-03-08T08:33:17;99807.59;;;6.74;70.00
79129;BME280;68529;43.286;23.360;2024-03-08T08:35:42;99811.88;;;6.79;70.04
79129;BME280;68529;43.286;23.360;2024-03-08T08:38:08;99817.97;;;6.80;69.76
79129;BME280;68529;43.286;23.360;2024-03-08T08:40:34;99813.59;;;6.83;69.94
79129;BME280;68529;43.286;23.360;2024-03-08T08:43:01;99811.00;;;6.82;70.00
79129;BME280;68529;43.286;23.360;2024-03-08T08:45:29;99817.03;;;6.88;69.79
79129;BME280;68529;43.286;23.360;2024-03-08T08:47:55;99809.25;;;6.84;69.62
79129;BME280;68529;43.286;23.360;2024-03-08T08:50:21;99810.13;;;6.83;69.96
79129;BME280;68529;43.286;23.360;2024-03-08T08:52:49;99800.69;;;6.68;69.53
79129;BME280;68529;43.286;23.360;2024-03-08T08:55:15;99807.66;;;6.69;70.11
79129;BME280;68529;43.286;23.360;2024-03-08T08:57:41;99809.38;;;6.67;70.15
79129;BME280;68529;43.286;23.360;2024-03-08T09:00:07;99799.06;;;6.58;69.49
79129;BME280;68529;43.286;23.360;2024-03-08T09:02:33;99808.56;;;6.62;69.84
79129;BME280;68529;43.286;23.360;2024-03-08T09:04:59;99808.63;;;6.56;69.99
79129;BME280;68529;43.286;23.360;2024-03-08T09:07:26;99804.28;;;6.57;69.79
79129;BME280;68529;43.286;23.360;2024-03-08T09:09:53;99815.75;;;6.37;69.69
79129;BME280;68529;43.286;23.360;2024-03-08T09:12:22;99808.72;;;6.45;70.28
79129;BME280;68529;43.286;23.360;2024-03-08T09:14:47;99800.72;;;6.67;69.90
79129;BME280;68529;43.286;23.360;2024-03-08T09:17:13;99806.66;;;6.79;69.68
79129;BME280;68529;43.286;23.360;2024-03-08T09:19:43;99803.13;;;6.86;69.88
79129;BME280;68529;43.286;23.360;2024-03-08T09:22:08;99803.09;;;6.89;69.57
79129;BME280;68529;43.286;23.360;2024-03-08T09:24:33;99805.66;;;6.92;69.02
79129;BME280;68529;43.286;23.360;2024-03-08T09:26:59;99798.56;;;7.03;68.96
79129;BME280;68529;43.286;23.360;2024-03-08T09:29:24;99795.91;;;7.08;68.54
79129;BME280;68529;43.286;23.360;2024-03-08T09:31:50;99801.31;;;6.93;68.69
79129;BME280;68529;43.286;23.360;2024-03-08T09:34:15;99801.41;;;6.84;68.54
79129;BME280;68529;43.286;23.360;2024-03-08T09:36:40;99801.34;;;6.91;68.41
79129;BME280;68529;43.286;23.360;2024-03-08T09:39:06;99791.72;;;6.93;68.63
79129;BME280;68529;43.286;23.360;2024-03-08T09:41:33;99807.28;;;7.02;69.02
79129;BME280;68529;43.286;23.360;2024-03-08T09:43:59;99800.22;;;7.14;68.74
79129;BME280;68529;43.286;23.360;2024-03-08T09:46:25;99806.53;;;6.93;68.44
79129;BME280;68529;43.286;23.360;2024-03-08T09:48:52;99808.22;;;6.95;68.58
79129;BME280;68529;43.286;23.360;2024-03-08T09:51:24;99803.94;;;6.90;68.60
79129;BME280;68529;43.286;23.360;2024-03-08T09:53:52;99801.28;;;6.97;68.49
79129;BME280;68529;43.286;23.360;2024-03-08T09:56:19;99806.25;;;7.16;68.86
79129;BME280;68529;43.286;23.360;2024-03-08T09:58:44;99807.00;;;7.28;68.48
79129;BME280;68529;43.286;23.360;2024-03-08T10:01:39;99805.09;;;7.41;68.35
79129;BME280;68529;43.286;23.360;2024-03-08T10:04:04;99806.97;;;7.31;68.08
79129;BME280;68529;43.286;23.360;2024-03-08T10:06:30;99806.22;;;7.19;67.69
79129;BME280;68529;43.286;23.360;2024-03-08T10:08:56;99806.53;;;6.94;67.91
79129;BME280;68529;43.286;23.360;2024-03-08T10:11:22;99813.31;;;7.08;68.13
79129;BME280;68529;43.286;23.360;2024-03-08T10:13:49;99803.94;;;6.91;67.50
79129;BME280;68529;43.286;23.360;2024-03-08T10:16:15;99805.59;;;6.98;67.95
79129;BME280;68529;43.286;23.360;2024-03-08T10:18:42;99799.38;;;7.12;68.27
79129;BME280;68529;43.286;23.360;2024-03-08T10:21:08;99807.06;;;7.21;68.42
79129;BME280;68529;43.286;23.360;2024-03-08T10:23:35;99799.25;;;7.19;68.80
79129;BME280;68529;43.286;23.360;2024-03-08T10:26:15;99808.06;;;7.11;68.98
79129;BME280;68529;43.286;23.360;2024-03-08T10:28:48;99800.31;;;7.04;68.87
79129;BME280;68529;43.286;23.360;2024-03-08T10:31:17;99801.00;;;7.19;68.44
79129;BME280;68529;43.286;23.360;2024-03-08T10:33:44;99807.00;;;7.27;68.68
79129;BME280;68529;43.286;23.360;2024-03-08T10:36:10;99797.47;;;7.24;68.64
79129;BME280;68529;43.286;23.360;2024-03-08T10:38:38;99803.53;;;7.28;68.51
79129;BME280;68529;43.286;23.360;2024-03-08T10:41:07;99800.88;;;7.31;68.69
79129;BME280;68529;43.286;23.360;2024-03-08T10:49:31;99794.03;;;7.18;69.00
79129;BME280;68529;43.286;23.360;2024-03-08T10:52:02;99794.00;;;7.21;69.30
79129;BME280;68529;43.286;23.360;2024-03-08T10:54:28;99799.31;;;7.15;69.00
79129;BME280;68529;43.286;23.360;2024-03-08T10:56:54;99789.81;;;7.08;69.15
79129;BME280;68529;43.286;23.360;2024-03-08T10:59:20;99786.34;;;7.07;69.05
79129;BME280;68529;43.286;23.360;2024-03-08T11:01:46;99781.13;;;7.07;69.37
79129;BME280;68529;43.286;23.360;2024-03-08T11:04:12;99782.84;;;7.07;69.33
79129;BME280;68529;43.286;23.360;2024-03-08T11:09:08;99781.00;;;7.16;69.30
79129;BME280;68529;43.286;23.360;2024-03-08T11:11:42;99774.06;;;7.17;69.49
79129;BME280;68529;43.286;23.360;2024-03-08T11:14:43;99768.84;;;7.12;69.12
79129;BME280;68529;43.286;23.360;2024-03-08T11:17:09;99773.19;;;7.15;69.35
79129;BME280;68529;43.286;23.360;2024-03-08T11:19:34;99769.69;;;7.16;69.37
79129;BME280;68529;43.286;23.360;2024-03-08T11:22:01;99774.81;;;7.25;69.23
79129;BME280;68529;43.286;23.360;2024-03-08T11:24:26;99772.28;;;7.20;69.30
79129;BME280;68529;43.286;23.360;2024-03-08T11:26:56;99768.84;;;7.12;69.19
79129;BME280;68529;43.286;23.360;2024-03-08T11:32:16;99773.16;;;7.18;69.05
79129;BME280;68529;43.286;23.360;2024-03-08T11:34:48;99769.63;;;7.22;68.96
79129;BME280;68529;43.286;23.360;2024-03-08T11:37:16;99764.28;;;7.29;68.69
79129;BME280;68529;43.286;23.360;2024-03-08T11:39:47;99773.09;;;7.22;68.79
79129;BME280;68529;43.286;23.360;2024-03-08T11:42:14;99774.91;;;7.16;68.92
79129;BME280;68529;43.286;23.360;2024-03-08T11:44:41;99775.78;;;7.15;68.94
79129;BME280;68529;43.286;23.360;2024-03-08T11:47:10;99772.34;;;7.14;68.81
79129;BME280;68529;43.286;23.360;2024-03-08T11:49:36;99766.13;;;7.23;68.86
79129;BME280;68529;43.286;23.360;2024-03-08T11:52:02;99765.19;;;7.27;68.83
79129;BME280;68529;43.286;23.360;2024-03-08T11:54:28;99763.34;;;7.36;68.78
79129;BME280;68529;43.286;23.360;2024-03-08T11:56:55;99762.41;;;7.42;68.31
79129;BME280;68529;43.286;23.360;2024-03-08T11:59:28;99764.06;;;7.46;68.30
79129;BME280;68529;43.286;23.360;2024-03-08T12:02:02;99757.09;;;7.48;68.19
79129;BME280;68529;43.286;23.360;2024-03-08T12:04:28;99758.91;;;7.41;67.93
79129;BME280;68529;43.286;23.360;2024-03-08T12:06:54;99763.22;;;7.44;68.34
79129;BME280;68529;43.286;23.360;2024-03-08T12:09:19;99756.97;;;7.55;68.33
79129;BME280;68529;43.286;23.360;2024-03-08T12:11:48;99757.03;;;7.51;68.39
79129;BME280;68529;43.286;23.360;2024-03-08T12:14:14;99756.19;;;7.50;67.93
79129;BME280;68529;43.286;23.360;2024-03-08T12:16:40;99756.94;;;7.57;67.89
79129;BME280;68529;43.286;23.360;2024-03-08T12:19:06;99752.50;;;7.63;67.96
79129;BME280;68529;43.286;23.360;2024-03-08T12:21:33;99754.13;;;7.72;67.36
79129;BME280;68529;43.286;23.360;2024-03-08T12:24:07;99747.16;;;7.71;67.26
79129;BME280;68529;43.286;23.360;2024-03-08T12:26:37;99752.34;;;7.74;67.64
79129;BME280;68529;43.286;23.360;2024-03-08T12:29:37;99751.53;;;7.69;67.86
79129;BME280;68529;43.286;23.360;2024-03-08T12:32:04;99749.75;;;7.71;67.36
79129;BME280;68529;43.286;23.360;2024-03-08T12:34:30;99754.03;;;7.78;67.32
79129;BME280;68529;43.286;23.360;2024-03-08T12:36:57;99748.06;;;7.70;67.57
79129;BME280;68529;43.286;23.360;2024-03-08T12:39:23;99756.97;;;7.55;67.92
79129;BME280;68529;43.286;23.360;2024-03-08T12:41:55;99751.13;;;7.38;68.36
79129;BME280;68529;43.286;23.360;2024-03-08T12:44:22;99761.50;;;7.43;68.40
79129;BME280;68529;43.286;23.360;2024-03-08T12:46:48;99759.97;;;7.28;68.71
79129;BME280;68529;43.286;23.360;2024-03-08T12:49:14;99758.88;;;7.43;68.41
79129;BME280;68529;43.286;23.360;2024-03-08T12:51:43;99751.06;;;7.41;68.48
79129;BME280;68529;43.286;23.360;2024-03-08T12:54:09;99752.03;;;7.36;68.52
79129;BME280;68529;43.286;23.360;2024-03-08T12:56:35;99752.81;;;7.42;68.90
79129;BME280;68529;43.286;23.360;2024-03-08T12:59:06;99747.59;;;7.41;68.67
79129;BME280;68529;43.286;23.360;2024-03-08T13:01:33;99744.06;;;7.45;68.63
79129;BME280;68529;43.286;23.360;2024-03-08T13:03:59;99747.63;;;7.38;68.92
79129;BME280;68529;43.286;23.360;2024-03-08T13:06:27;99742.47;;;7.33;68.68
79129;BME280;68529;43.286;23.360;2024-03-08T13:08:54;99746.84;;;7.33;69.01
79129;BME280;68529;43.286;23.360;2024-03-08T13:11:20;99748.56;;;7.34;68.60